.
WxDataArchive / Data Records for 2013-09-07
2013-09-06 September 2013 2013-09-08

Data Records for Saturday, 07 September 2013

Time	Temp	Chill	HIndex	Humid	Dewpt	 Wind 	HiWind	WindDir	Rain 	Barom 
-----	----	-----	------	-----	-----	------	------	-------	-----	----- 
00:00	60.1	60.1	60.1	74	51.8	0	0	---	0.00	30.063 
00:05	59.9	59.9	59.9	75	52.0	0	0	---	0.00	30.063 
00:10	59.8	59.8	59.8	75	51.9	0	0	---	0.00	30.063 
00:15	59.8	59.8	59.8	75	51.9	0	0	---	0.00	30.054 
00:20	59.8	59.8	59.8	75	51.9	0	0	---	0.00	30.054 
00:25	59.6	59.6	59.6	76	52.0	0	0	---	0.00	30.054 
00:30	59.6	59.6	59.6	76	52.0	0	0	---	0.00	30.050 
00:35	59.5	59.5	59.5	76	51.9	0	0	---	0.00	30.050 
00:40	59.5	59.5	59.5	76	51.9	0	0	---	0.00	30.050 
00:45	59.3	59.3	59.3	76	51.7	0	0	---	0.00	30.053 
00:50	59.3	59.3	59.3	76	51.7	0	0	---	0.00	30.053 
00:55	59.2	59.2	59.2	77	52.0	0	0	---	0.00	30.053 
01:00	59.2	59.2	59.2	77	52.0	0	0	---	0.00	30.054 
01:05	59.2	59.2	59.2	77	52.0	0	0	---	0.00	30.054 
01:10	59.0	59.0	59.0	77	51.8	0	0	---	0.00	30.054 
01:15	59.0	59.0	59.0	76	51.4	0	0	---	0.00	30.054 
01:20	59.0	59.0	59.0	77	51.8	0	0	---	0.00	30.054 
01:25	58.9	58.9	58.9	77	51.7	0	0	---	0.00	30.054 
01:30	58.9	58.9	58.9	77	51.7	0	0	---	0.00	30.055 
01:35	58.9	58.9	58.9	77	51.7	0	0	---	0.00	30.055 
01:40	58.9	58.9	58.9	77	51.7	0	0	---	0.00	30.055 
01:45	58.9	58.9	58.9	77	51.7	0	0	---	0.00	30.055 
01:50	58.7	58.7	58.7	78	51.9	0	0	---	0.00	30.055 
01:55	58.7	58.7	58.7	78	51.9	0	0	---	0.00	30.055 
02:00	58.6	58.6	58.6	78	51.8	0	0	---	0.00	30.054 
02:05	58.6	58.6	58.6	78	51.8	0	0	---	0.00	30.054 
02:10	58.6	58.6	58.6	79	52.1	0	0	---	0.00	30.054 
02:15	58.6	58.6	58.6	79	52.1	0	0	---	0.00	30.051 
02:20	58.4	58.4	58.4	79	51.9	0	0	---	0.00	30.051 
02:25	58.4	58.4	58.4	80	52.3	0	0	---	0.00	30.051 
02:30	58.3	58.3	58.3	80	52.2	0	0	---	0.00	30.052 
02:35	58.3	58.3	58.3	80	52.2	0	0	---	0.00	30.052 
02:40	58.1	58.1	58.1	80	52.0	0	0	---	0.00	30.052 
02:45	58.1	58.1	58.1	80	52.0	0	0	---	0.00	30.047 
02:50	58.0	58.0	58.0	80	51.9	0	0	---	0.00	30.047 
02:55	58.0	58.0	58.0	80	51.9	0	0	---	0.00	30.047 
03:00	58.0	58.0	58.0	80	51.9	0	0	---	0.00	30.046 
03:05	58.0	58.0	58.0	81	52.2	0	0	---	0.00	30.046 
03:10	58.0	58.0	58.0	81	52.2	0	0	---	0.00	30.046 
03:15	58.0	58.0	58.0	81	52.2	0	0	---	0.00	30.045 
03:20	57.8	57.8	57.8	81	52.0	0	0	---	0.00	30.045 
03:25	57.8	57.8	57.8	81	52.0	0	0	---	0.00	30.045 
03:30	58.0	58.0	58.0	81	52.2	0	0	---	0.00	30.045 
03:35	58.0	58.0	58.0	81	52.2	0	0	---	0.00	30.045 
03:40	58.1	58.1	58.1	81	52.3	0	0	---	0.00	30.045 
03:45	58.3	58.3	58.3	82	52.8	0	0	---	0.00	30.048 
03:50	58.6	58.6	58.6	82	53.1	0	0	---	0.00	30.048 
03:55	58.7	58.7	58.7	82	53.2	0	0	---	0.00	30.048 
04:00	59.0	59.0	59.0	81	53.2	0	0	---	0.00	30.038 
04:05	59.2	59.2	59.2	81	53.4	0	0	---	0.00	30.038 
04:10	59.3	59.3	59.3	80	53.1	0	0	---	0.00	30.038 
04:15	59.6	59.6	59.6	79	53.1	0	0	---	0.00	30.037 
04:20	59.9	59.9	59.9	79	53.4	0	0	---	0.00	30.037 
04:25	60.4	60.4	60.4	78	53.5	0	0	---	0.00	30.037 
04:30	60.7	60.7	60.7	77	53.4	0	0	---	0.00	30.036 
04:35	61.2	61.2	61.2	75	53.2	0	0	---	0.00	30.036 
04:40	61.5	61.5	61.5	75	53.5	0	0	---	0.00	30.036 
04:45	61.6	61.6	61.6	73	52.9	0	0	---	0.00	30.035 
04:50	61.8	61.8	61.8	73	53.0	0	0	---	0.00	30.035 
04:55	62.0	62.0	62.0	72	52.9	0	0	---	0.00	30.035 
05:00	62.0	62.0	62.0	71	52.5	0	0	---	0.00	30.033 
05:05	62.1	62.1	62.1	71	52.6	0	0	---	0.00	30.033 
05:10	62.1	62.1	62.1	71	52.6	0	0	---	0.00	30.033 
05:15	62.3	62.3	62.3	70	52.4	0	0	---	0.00	30.030 
05:20	62.3	62.3	62.3	70	52.4	0	0	---	0.00	30.030 
05:25	62.4	62.4	62.4	69	52.1	0	0	---	0.00	30.030 
05:30	62.7	62.7	62.7	68	52.0	0	0	---	0.00	30.031 
05:35	62.9	62.9	62.9	68	52.2	0	0	---	0.00	30.031 
05:40	63.1	63.1	63.1	67	52.0	0	0	---	0.00	30.031 
05:45	63.2	63.2	63.2	67	52.1	0	0	---	0.00	30.028 
05:50	63.4	63.4	63.4	66	51.8	0	0	---	0.00	30.028 
05:55	63.4	63.4	63.4	66	51.8	0	0	---	0.00	30.028 
06:00	63.5	63.5	63.5	66	51.9	0	0	---	0.00	30.026 
06:05	63.7	63.7	63.7	66	52.1	0	0	---	0.00	30.026 
06:10	63.7	63.7	63.7	66	52.1	0	0	---	0.00	30.026 
06:15	63.7	63.7	63.7	66	52.1	0	0	---	0.00	30.028 
06:20	63.7	63.7	63.7	66	52.1	0	0	---	0.00	30.028 
06:25	63.7	63.7	63.7	66	52.1	0	0	---	0.00	30.028 
06:30	63.7	63.7	63.7	65	51.7	0	0	---	0.00	30.028 
06:35	63.7	63.7	63.7	65	51.7	0	0	---	0.00	30.028 
06:40	63.7	63.7	63.7	65	51.7	0	0	---	0.00	30.028 
06:45	63.5	63.5	63.5	66	51.9	0	0	---	0.00	30.031 
06:50	63.4	63.4	63.4	66	51.8	0	0	---	0.00	30.031 
06:55	63.2	63.2	63.2	67	52.1	0	0	---	0.00	30.031 
07:00	63.1	63.1	63.1	67	52.0	0	0	---	0.00	30.034 
07:05	63.1	63.1	63.1	67	52.0	0	0	---	0.00	30.034 
07:10	62.9	62.9	62.9	67	51.8	0	0	---	0.00	30.034 
07:15	62.7	62.7	62.7	68	52.0	0	0	---	0.00	30.037 
07:20	62.7	62.7	62.7	68	52.0	0	0	---	0.00	30.037 
07:25	62.7	62.7	62.7	68	52.0	0	0	---	0.00	30.037 
07:30	62.7	62.7	62.7	68	52.0	0	0	---	0.00	30.037 
07:35	62.7	62.7	62.7	68	52.0	0	0	---	0.00	30.037 
07:40	62.7	62.7	62.7	69	52.4	0	0	---	0.00	30.037 
07:45	62.7	62.7	62.7	69	52.4	0	0	---	0.00	30.036 
07:50	62.7	62.7	62.7	69	52.4	0	0	---	0.00	30.036 
07:55	62.9	62.9	62.9	69	52.6	0	0	---	0.00	30.036 
08:00	63.2	63.2	63.2	68	52.5	0	0	---	0.00	30.031 
08:05	63.4	63.4	63.4	68	52.6	0	0	---	0.00	30.031 
08:10	63.7	63.7	63.7	67	52.5	0	0	---	0.00	30.031 
08:15	64.0	64.0	64.0	67	52.8	0	0	---	0.00	30.028 
08:20	64.2	64.2	64.2	67	53.0	0	0	---	0.00	30.028 
08:25	64.5	64.5	64.5	67	53.3	0	0	---	0.00	30.028 
08:30	64.8	64.8	64.8	67	53.6	0	0	---	0.00	30.027 
08:35	65.2	65.2	65.2	67	54.0	0	0	---	0.00	30.027 
08:40	65.5	65.5	65.5	66	53.8	0	0	---	0.00	30.027 
08:45	65.8	65.8	65.8	66	54.1	0	0	---	0.00	30.025 
08:50	66.3	66.3	66.3	65	54.2	0	1	248	0.00	30.025 
08:55	66.8	66.8	66.8	65	54.6	0	0	---	0.00	30.025 
09:00	66.9	66.9	66.9	65	54.7	0	0	---	0.00	30.028 
09:05	67.3	67.3	67.3	65	55.1	0	0	---	0.00	30.028 
09:10	67.4	67.4	67.4	65	55.2	0	0	---	0.00	30.028 
09:15	67.6	67.6	67.6	65	55.4	0	0	---	0.00	30.026 
09:20	67.8	67.8	67.8	66	56.0	0	0	---	0.00	30.026 
09:25	68.3	68.3	68.3	65	56.1	0	0	---	0.00	30.026 
09:30	68.6	68.6	68.6	65	56.4	0	0	---	0.00	30.024 
09:35	69.1	69.1	69.1	65	56.8	0	0	---	0.00	30.024 
09:40	69.4	69.4	69.4	65	57.1	0	0	---	0.00	30.024 
09:45	69.8	69.8	69.8	65	57.5	0	0	---	0.00	30.014 
09:50	70.1	70.1	70.1	65	57.8	0	0	---	0.00	30.014 
09:55	70.4	70.4	70.4	65	58.1	0	0	---	0.00	30.014 
10:00	70.9	70.9	70.9	65	58.5	0	1	248	0.00	30.009 
10:05	71.6	71.6	71.6	65	59.2	0	0	---	0.00	30.009 
10:10	72.3	72.3	72.3	64	59.4	0	1	315	0.00	30.009 
10:15	72.8	72.8	72.8	63	59.5	0	0	---	0.00	30.010 
10:20	73.7	73.7	73.7	62	59.9	0	0	---	0.00	30.010 
10:25	74.2	74.2	74.2	61	59.9	0	1	315	0.00	30.010 
10:30	74.6	74.6	74.6	61	60.2	1	3	315	0.00	30.013 
10:35	74.9	74.9	74.9	61	60.5	1	2	315	0.00	30.013 
10:40	75.3	75.3	77.5	61	60.9	1	3	315	0.00	30.013 
10:45	76.0	76.0	78.0	60	61.1	0	2	315	0.00	30.007 
10:50	76.7	76.7	78.5	59	61.3	1	2	315	0.00	30.007 
10:55	77.2	77.2	78.9	58	61.3	1	3	248	0.00	30.007 
11:00	77.4	77.4	79.1	59	61.9	1	4	270	0.00	30.006 
11:05	77.9	77.9	79.5	57	61.4	1	3	270	0.00	30.006 
11:10	77.9	77.9	79.5	58	61.9	1	3	270	0.00	30.006 
11:15	78.3	78.3	79.9	58	62.3	1	3	270	0.00	30.006 
11:20	78.6	78.6	80.1	57	62.1	1	3	270	0.00	30.006 
11:25	78.8	78.8	80.3	58	62.8	1	3	270	0.00	30.006 
11:30	79.2	79.2	80.7	58	63.1	1	2	270	0.00	30.005 
11:35	79.6	79.6	81.1	57	63.0	1	4	270	0.00	30.005 
11:40	79.8	79.8	81.2	56	62.7	1	3	270	0.00	30.005 
11:45	80.3	80.3	81.7	56	63.1	1	4	270	0.00	30.000 
11:50	80.5	80.5	81.8	55	62.8	1	3	270	0.00	30.000 
11:55	80.3	80.3	81.7	56	63.1	1	3	270	0.00	30.000 
12:00	80.9	80.9	82.5	57	64.2	0	1	270	0.00	29.993 
12:05	81.4	81.4	82.7	54	63.1	1	4	270	0.00	29.993 
12:10	82.0	82.0	83.2	53	63.2	1	3	292	0.00	29.993 
12:15	82.4	82.4	83.7	53	63.5	1	3	270	0.00	29.987 
12:20	82.4	82.4	83.4	51	62.4	2	6	270	0.00	29.987 
12:25	82.4	82.4	83.7	53	63.5	1	4	270	0.00	29.987 
12:30	82.0	82.0	83.1	52	62.6	2	5	270	0.00	29.986 
12:35	82.2	82.2	83.5	53	63.3	2	4	270	0.00	29.986 
12:40	82.6	82.6	83.8	52	63.2	1	3	292	0.00	29.986 
12:45	82.4	82.4	83.4	51	62.4	1	4	292	0.00	29.980 
12:50	82.2	82.2	83.1	51	62.2	2	5	292	0.00	29.980 
12:55	81.8	81.8	83.0	53	63.0	1	4	270	0.00	29.980 
13:00	82.0	82.0	83.2	53	63.2	2	4	270	0.00	29.977 
13:05	82.8	82.8	84.2	53	63.9	1	2	270	0.00	29.977 
13:10	83.8	83.8	84.9	50	63.1	1	4	270	0.00	29.977 
13:15	84.0	84.0	84.9	49	62.8	2	5	292	0.00	29.968 
13:20	83.6	83.6	84.6	50	63.0	2	4	270	0.00	29.968 
13:25	83.4	83.4	84.2	49	62.2	2	5	270	0.00	29.968 
13:30	83.4	83.4	84.2	49	62.2	2	6	270	0.00	29.965 
13:35	83.4	83.4	84.4	50	62.8	1	3	270	0.00	29.965 
13:40	83.4	83.4	84.4	50	62.8	1	3	292	0.00	29.965 
13:45	83.4	83.4	84.2	49	62.2	1	3	292	0.00	29.961 
13:50	83.4	83.4	84.0	48	61.6	1	3	292	0.00	29.961 
13:55	84.1	84.1	85.0	49	62.8	1	3	292	0.00	29.961 
14:00	84.9	84.9	85.2	45	61.2	2	5	270	0.00	29.956 
14:05	85.3	85.3	85.0	42	59.6	2	5	270	0.00	29.956 
14:10	85.1	85.1	85.0	43	60.1	2	6	315	0.00	29.956 
14:15	85.5	85.5	85.7	44	61.1	2	5	292	0.00	29.952 
14:20	85.9	85.9	85.7	42	60.1	2	7	292	0.00	29.952 
14:25	85.9	85.9	85.7	42	60.1	1	4	270	0.00	29.952 
14:30	86.3	86.3	86.5	43	61.1	2	5	270	0.00	29.947 
14:35	86.7	86.7	87.0	43	61.5	1	3	270	0.00	29.947 
14:40	87.2	87.2	87.4	42	61.3	1	2	270	0.00	29.947 
14:45	87.0	87.0	86.6	40	59.7	2	5	270	0.00	29.935 
14:50	86.1	86.1	85.6	40	58.9	1	3	270	0.00	29.935 
14:55	85.5	85.5	84.9	40	58.4	1	2	270	0.00	29.935 
15:00	85.3	85.3	84.5	39	57.5	2	5	270	0.00	29.931 
15:05	85.1	85.1	84.3	39	57.3	2	4	270	0.00	29.931 
15:10	84.9	84.9	84.0	39	57.1	1	4	270	0.00	29.931 
15:15	84.7	84.7	83.8	39	57.0	1	4	270	0.00	29.926 
15:20	84.5	84.5	83.8	40	57.5	1	3	270	0.00	29.926 
15:25	84.3	84.3	83.8	41	58.0	1	3	270	0.00	29.926 
15:30	84.3	84.3	83.3	38	55.9	1	3	270	0.00	29.923 
15:35	84.3	84.3	83.6	40	57.3	1	3	270	0.00	29.923 
15:40	84.1	84.1	83.7	42	58.5	0	1	270	0.00	29.923 
15:45	84.1	84.1	83.4	40	57.1	1	4	270	0.00	29.918 
15:50	84.1	84.1	83.6	41	57.8	1	2	270	0.00	29.918 
15:55	84.1	84.1	83.7	42	58.5	1	2	270	0.00	29.918 
16:00	84.3	84.3	84.1	43	59.3	0	2	270	0.00	29.918 
16:05	84.5	84.5	84.1	42	58.9	0	2	270	0.00	29.918 
16:10	84.7	84.7	84.4	42	59.0	0	2	270	0.00	29.918 
16:15	84.9	84.9	84.8	43	59.9	0	1	270	0.00	29.907 
16:20	85.5	85.5	85.3	42	59.8	0	2	270	0.00	29.907 
16:25	85.5	85.5	85.3	42	59.8	0	3	270	0.00	29.907 
16:30	85.7	85.7	85.5	42	59.9	0	3	270	0.00	29.901 
16:35	86.1	86.1	85.8	41	59.6	0	2	270	0.00	29.901 
16:40	86.3	86.3	85.8	40	59.1	1	3	270	0.00	29.901 
16:45	86.5	86.5	85.8	39	58.6	1	3	270	0.00	29.904 
16:50	86.7	86.7	86.0	39	58.7	1	2	270	0.00	29.904 
16:55	87.0	87.0	86.4	39	59.0	0	2	270	0.00	29.904 
17:00	87.2	87.2	86.2	37	57.7	1	3	270	0.00	29.906 
17:05	87.0	87.0	85.8	36	56.8	2	4	270	0.00	29.906 
17:10	86.5	86.5	85.6	38	57.8	2	5	270	0.00	29.906 
17:15	86.5	86.5	85.8	39	58.6	2	6	270	0.00	29.912 
17:20	86.7	86.7	85.2	35	55.7	3	7	292	0.00	29.912 
17:25	86.5	86.5	85.4	37	57.1	3	6	270	0.00	29.912 
17:30	86.3	86.3	85.6	39	58.4	2	5	270	0.00	29.911 
17:35	86.1	86.1	85.4	39	58.2	3	5	270	0.00	29.911 
17:40	85.5	85.5	84.9	40	58.4	2	4	270	0.00	29.911 
17:45	85.3	85.3	84.7	40	58.2	1	3	270	0.00	29.905 
17:50	85.3	85.3	84.7	40	58.2	1	3	270	0.00	29.905 
17:55	85.3	85.3	84.7	40	58.2	1	3	270	0.00	29.905 
18:00	85.3	85.3	84.7	40	58.2	2	4	270	0.00	29.902 
18:05	85.1	85.1	84.4	40	58.0	1	5	270	0.00	29.902 
18:10	84.9	84.9	84.4	41	58.5	2	4	270	0.00	29.902 
18:15	84.7	84.7	84.2	41	58.4	1	4	270	0.00	29.901 
18:20	84.5	84.5	84.0	41	58.2	1	3	270	0.00	29.901 
18:25	84.3	84.3	83.9	42	58.7	1	4	270	0.00	29.901 
18:30	84.3	84.3	83.9	42	58.7	1	3	270	0.00	29.902 
18:35	84.1	84.1	83.7	42	58.5	1	3	270	0.00	29.902 
18:40	84.0	84.0	83.8	43	59.1	1	3	270	0.00	29.902 
18:45	84.0	84.0	83.8	43	59.1	1	5	292	0.00	29.903 
18:50	83.8	83.8	83.6	43	58.9	0	1	292	0.00	29.903 
18:55	83.8	83.8	83.6	43	58.9	1	4	292	0.00	29.903 
19:00	83.6	83.6	83.4	43	58.7	1	2	292	0.00	29.903 
19:05	83.6	83.6	83.4	43	58.7	0	1	292	0.00	29.903 
19:10	83.4	83.4	83.2	43	58.5	0	1	292	0.00	29.903 
19:15	83.0	83.0	82.8	43	58.2	0	3	292	0.00	29.903 
19:20	82.8	82.8	82.7	44	58.6	0	1	292	0.00	29.903 
19:25	82.8	82.8	82.7	44	58.6	0	0	---	0.00	29.903 
19:30	82.6	82.6	82.7	45	59.1	0	1	292	0.00	29.902 
19:35	82.4	82.4	82.5	45	58.9	0	1	292	0.00	29.902 
19:40	82.2	82.2	82.4	46	59.3	0	1	292	0.00	29.902 
19:45	81.8	81.8	82.0	46	59.0	0	0	---	0.00	29.893 
19:50	81.6	81.6	81.9	47	59.4	0	0	---	0.00	29.893 
19:55	81.2	81.2	81.8	49	60.2	0	0	---	0.00	29.893 
20:00	81.1	81.1	81.8	50	60.7	0	1	292	0.00	29.891 
20:05	80.9	80.9	81.8	51	61.0	0	0	---	0.00	29.891 
20:10	80.9	80.9	81.9	52	61.6	0	1	292	0.00	29.891 
20:15	80.7	80.7	81.8	53	62.0	0	1	292	0.00	29.892 
20:20	80.5	80.5	81.6	53	61.8	0	1	292	0.00	29.892 
20:25	80.3	80.3	81.5	54	62.1	0	1	292	0.00	29.892 
20:30	80.1	80.1	81.3	54	61.9	0	0	---	0.00	29.895 
20:35	79.9	79.9	81.1	54	61.7	0	1	292	0.00	29.895 
20:40	79.8	79.8	81.1	55	62.2	0	0	---	0.00	29.895 
20:45	79.4	79.4	80.7	55	61.8	0	0	---	0.00	29.899 
20:50	79.0	79.0	80.4	56	61.9	0	0	---	0.00	29.899 
20:55	78.6	78.6	80.1	57	62.1	0	0	---	0.00	29.899 
21:00	78.3	78.3	79.9	58	62.3	0	0	---	0.00	29.901 
21:05	77.9	77.9	79.5	58	61.9	0	0	---	0.00	29.901 
21:10	77.6	77.6	79.3	59	62.1	0	0	---	0.00	29.901 
21:15	77.2	77.2	79.0	61	62.7	0	0	---	0.00	29.904 
21:20	76.7	76.7	78.5	61	62.2	0	0	---	0.00	29.904 
21:25	76.3	76.3	78.2	62	62.3	0	0	---	0.00	29.904 
21:30	76.0	76.0	77.9	63	62.5	0	0	---	0.00	29.907 
21:35	75.6	75.6	77.6	64	62.5	0	0	---	0.00	29.907 
21:40	75.3	75.3	77.4	64	62.3	0	0	---	0.00	29.907 
21:45	74.9	74.9	74.9	65	62.3	0	0	---	0.00	29.907 
21:50	74.7	74.7	74.7	65	62.1	0	0	---	0.00	29.907 
21:55	74.6	74.6	74.6	66	62.5	0	0	---	0.00	29.907 
22:00	74.4	74.4	74.4	67	62.7	0	0	---	0.00	29.913 
22:05	74.4	74.4	74.4	68	63.1	0	0	---	0.00	29.913 
22:10	74.4	74.4	74.4	68	63.1	0	0	---	0.00	29.913 
22:15	74.4	74.4	74.4	68	63.1	0	0	---	0.00	29.912 
22:20	74.6	74.6	74.6	69	63.7	0	0	---	0.00	29.912 
22:25	74.7	74.7	74.7	68	63.4	0	0	---	0.00	29.912 
22:30	75.1	75.1	76.9	68	63.8	0	0	---	0.00	29.914 
22:35	75.3	75.3	77.2	66	63.1	0	0	---	0.00	29.914 
22:40	75.4	75.4	77.3	66	63.2	0	0	---	0.00	29.914 
22:45	75.8	75.8	77.7	65	63.2	0	0	---	0.00	29.914 
22:50	76.0	76.0	77.9	65	63.4	0	1	292	0.00	29.914 
22:55	76.1	76.1	78.0	65	63.5	0	0	---	0.00	29.914 
23:00	76.1	76.1	78.0	64	63.0	0	0	---	0.00	29.915 
23:05	76.3	76.3	78.2	64	63.2	0	0	---	0.00	29.915 
23:10	76.3	76.3	78.2	64	63.2	0	0	---	0.00	29.915 
23:15	76.3	76.3	78.2	64	63.2	0	0	---	0.00	29.911 
23:20	76.3	76.3	78.2	64	63.2	0	0	---	0.00	29.911 
23:25	76.1	76.1	78.0	65	63.5	0	0	---	0.00	29.911 
23:30	76.1	76.1	78.0	65	63.5	0	0	---	0.00	29.911 
23:35	76.0	76.0	77.9	65	63.4	0	0	---	0.00	29.911 
23:40	76.0	76.0	77.9	65	63.4	0	0	---	0.00	29.911 
23:45	76.0	76.0	77.9	65	63.4	0	0	---	0.00	29.913 
23:50	75.8	75.8	77.7	65	63.2	0	0	---	0.00	29.913 
23:55	75.8	75.8	77.7	66	63.6	0	0	---	0.00	29.913 

CoCoRaHS
IN-AL-39
A2 Web Hosting
Creative Commons License
GoDaddy
search engine by freefind advanced

loaded 2018-11-14 04:48:52 • last modified 2010-11-18 10:43:29
Privacy PolicyDisclaimer
• wx.awcolley.com is powered by PmWiki v.2002016 •
• all content (unless otherwise noted) © 2018 A W Colley